sensor_id;sensor_type;location;lat;lon;timestamp;pressure;altitude;pressure_sealevel;temperature;humidity
74431;BME280;62863;52.062;23.764;2022-09-09T00:03:34;1025.7;;;13.3;51.7
74431;BME280;62863;52.062;23.764;2022-09-09T00:09:02;1025.8;;;13.3;51.7
74431;BME280;62863;52.062;23.764;2022-09-09T00:13:52;1025.9;;;13.4;51.7
74431;BME280;62863;52.062;23.764;2022-09-09T00:19:07;1025.8;;;13.5;51.6
74431;BME280;62863;52.062;23.764;2022-09-09T00:23:38;1025.8;;;13.6;51.1
74431;BME280;62863;52.062;23.764;2022-09-09T00:28:33;1025.8;;;13.8;51
74431;BME280;62863;52.062;23.764;2022-09-09T00:33:22;1025.7;;;13.9;50.8
74431;BME280;62863;52.062;23.764;2022-09-09T00:38:32;1025.6;;;14;50.6
74431;BME280;62863;52.062;23.764;2022-09-09T00:43:41;1025.6;;;14.1;50.1
74431;BME280;62863;52.062;23.764;2022-09-09T00:49:02;1025.6;;;14.2;50
74431;BME280;62863;52.062;23.764;2022-09-09T00:54:01;1025.6;;;14.3;49.9
74431;BME280;62863;52.062;23.764;2022-09-09T00:58:50;1025.6;;;14.3;49.8
74431;BME280;62863;52.062;23.764;2022-09-09T01:03:33;1025.7;;;14.3;49.4
74431;BME280;62863;52.062;23.764;2022-09-09T01:08:53;1025.7;;;14.2;50
74431;BME280;62863;52.062;23.764;2022-09-09T01:14:01;1025.9;;;14.1;49.8
74431;BME280;62863;52.062;23.764;2022-09-09T01:18:34;1025.9;;;14.1;50.2
74431;BME280;62863;52.062;23.764;2022-09-09T01:24:38;1025.9;;;14.2;49.6
74431;BME280;62863;52.062;23.764;2022-09-09T01:28:24;1025.8;;;14.1;49.9
74431;BME280;62863;52.062;23.764;2022-09-09T01:33:47;1025.7;;;13.9;50
74431;BME280;62863;52.062;23.764;2022-09-09T01:38:41;1025.7;;;13.9;50.3
74431;BME280;62863;52.062;23.764;2022-09-09T01:43:52;1025.7;;;13.8;51.1
74431;BME280;62863;52.062;23.764;2022-09-09T01:48:45;1025.7;;;13.8;51
74431;BME280;62863;52.062;23.764;2022-09-09T01:53:35;1025.7;;;13.4;53.4
74431;BME280;62863;52.062;23.764;2022-09-09T01:59:03;1025.7;;;12.9;57.1
74431;BME280;62863;52.062;23.764;2022-09-09T02:03:57;1025.7;;;12.5;58.4
74431;BME280;62863;52.062;23.764;2022-09-09T02:08:40;1025.7;;;12.5;58.4
74431;BME280;62863;52.062;23.764;2022-09-09T04:13:21;1025.4;;;10.7;79
74431;BME280;62863;52.062;23.764;2022-09-09T04:18:49;1025.4;;;10.7;78.6
74431;BME280;62863;52.062;23.764;2022-09-09T04:23:47;1025.3;;;10.6;78.5
74431;BME280;62863;52.062;23.764;2022-09-09T04:28:39;1025.3;;;10.6;78.6
74431;BME280;62863;52.062;23.764;2022-09-09T04:33:49;1025.3;;;10.6;79.4
74431;BME280;62863;52.062;23.764;2022-09-09T04:39:02;1025.3;;;10.6;79.7
74431;BME280;62863;52.062;23.764;2022-09-09T04:43:38;1025.3;;;10.6;79.5
74431;BME280;62863;52.062;23.764;2022-09-09T04:48:29;1025.2;;;10.7;79.6
74431;BME280;62863;52.062;23.764;2022-09-09T04:53:59;1025.2;;;10.7;78.8
74431;BME280;62863;52.062;23.764;2022-09-09T04:58:51;1025.4;;;10.6;79.2
74431;BME280;62863;52.062;23.764;2022-09-09T05:04:03;1025.4;;;10.6;79.7
74431;BME280;62863;52.062;23.764;2022-09-09T05:08:42;1025.5;;;10.6;80.1
74431;BME280;62863;52.062;23.764;2022-09-09T05:13:51;1025.5;;;10.6;79.8
74431;BME280;62863;52.062;23.764;2022-09-09T05:19:05;1025.5;;;10.5;80
74431;BME280;62863;52.062;23.764;2022-09-09T05:23:42;1025.5;;;10.5;79.4
74431;BME280;62863;52.062;23.764;2022-09-09T05:28:41;1025.5;;;10.5;80.2
74431;BME280;62863;52.062;23.764;2022-09-09T05:33:59;1025.5;;;10.5;80.3
74431;BME280;62863;52.062;23.764;2022-09-09T05:38:31;1025.4;;;10.5;79.1
74431;BME280;62863;52.062;23.764;2022-09-09T05:43:21;1025.4;;;10.4;80.9
74431;BME280;62863;52.062;23.764;2022-09-09T05:48:42;1025.5;;;10.4;80.5
74431;BME280;62863;52.062;23.764;2022-09-09T05:54:03;1025.5;;;10.4;80.1
74431;BME280;62863;52.062;23.764;2022-09-09T05:59:03;1025.6;;;10.3;80.2
74431;BME280;62863;52.062;23.764;2022-09-09T06:04:03;1025.6;;;10.3;81.5
74431;BME280;62863;52.062;23.764;2022-09-09T06:09:02;1025.6;;;10.4;80.9
74431;BME280;62863;52.062;23.764;2022-09-09T06:14:04;1025.6;;;10.5;80.8
74431;BME280;62863;52.062;23.764;2022-09-09T06:19:03;1025.6;;;10.5;81.3
74431;BME280;62863;52.062;23.764;2022-09-09T06:23:42;1025.6;;;10.5;81.8
74431;BME280;62863;52.062;23.764;2022-09-09T06:28:21;1025.7;;;10.6;81.9
74431;BME280;62863;52.062;23.764;2022-09-09T06:34:04;1025.7;;;10.6;81.6
74431;BME280;62863;52.062;23.764;2022-09-09T06:38:51;1025.7;;;10.7;81.4
74431;BME280;62863;52.062;23.764;2022-09-09T06:43:41;1025.8;;;10.8;81.4
74431;BME280;62863;52.062;23.764;2022-09-09T06:48:53;1025.8;;;10.8;81.3
74431;BME280;62863;52.062;23.764;2022-09-09T06:53:54;1025.8;;;10.9;80.6
74431;BME280;62863;52.062;23.764;2022-09-09T06:58:42;1025.8;;;10.9;80.5
74431;BME280;62863;52.062;23.764;2022-09-09T07:03:52;1025.8;;;10.8;80.4
74431;BME280;62863;52.062;23.764;2022-09-09T07:09:05;1025.9;;;10.7;81.1
74431;BME280;62863;52.062;23.764;2022-09-09T07:13:32;1026;;;10.8;81.5
74431;BME280;62863;52.062;23.764;2022-09-09T07:18:31;1026.1;;;11;80.6
74431;BME280;62863;52.062;23.764;2022-09-09T07:24:05;1026.2;;;10.9;80.5
74431;BME280;62863;52.062;23.764;2022-09-09T07:28:55;1026.2;;;10.9;80.9
74431;BME280;62863;52.062;23.764;2022-09-09T07:34:07;1026.2;;;10.9;80.2
74431;BME280;62863;52.062;23.764;2022-09-09T07:38:43;1026.2;;;10.8;81.6
74431;BME280;62863;52.062;23.764;2022-09-09T07:43:54;1026.3;;;10.8;81
74431;BME280;62863;52.062;23.764;2022-09-09T07:49:05;1026.3;;;10.8;80.8
74431;BME280;62863;52.062;23.764;2022-09-09T07:53:41;1026.3;;;10.8;80.8
74431;BME280;62863;52.062;23.764;2022-09-09T07:58:42;1026.4;;;10.7;82
74431;BME280;62863;52.062;23.764;2022-09-09T08:04:00;1026.3;;;10.9;82.4
74431;BME280;62863;52.062;23.764;2022-09-09T08:08:31;1026.4;;;11.1;81.6
74431;BME280;62863;52.062;23.764;2022-09-09T08:13:43;1026.4;;;11.3;81.2
74431;BME280;62863;52.062;23.764;2022-09-09T08:18:31;1026.4;;;11.3;81.2
74431;BME280;62863;52.062;23.764;2022-09-09T08:24:06;1026.5;;;11.6;80.5
74431;BME280;62863;52.062;23.764;2022-09-09T08:33:42;1026.5;;;12;79.4
74431;BME280;62863;52.062;23.764;2022-09-09T08:38:39;1026.3;;;12;79.5
74431;BME280;62863;52.062;23.764;2022-09-09T08:44:08;1026.4;;;12.2;79.3
74431;BME280;62863;52.062;23.764;2022-09-09T08:53:36;1026.4;;;12.3;79
74431;BME280;62863;52.062;23.764;2022-09-09T08:58:32;1026.3;;;12.5;78.7
74431;BME280;62863;52.062;23.764;2022-09-09T09:04:47;1026.3;;;12.5;78.6
74431;BME280;62863;52.062;23.764;2022-09-09T09:13:47;1026.2;;;12.8;78
74431;BME280;62863;52.062;23.764;2022-09-09T09:18:55;1026.2;;;13;77.5
74431;BME280;62863;52.062;23.764;2022-09-09T09:28:53;1026.3;;;12.8;76.4
74431;BME280;62863;52.062;23.764;2022-09-09T09:33:49;1026.4;;;12.8;76.1
74431;BME280;62863;52.062;23.764;2022-09-09T09:39:03;1026.5;;;12.8;76.2
74431;BME280;62863;52.062;23.764;2022-09-09T09:43:33;1026.5;;;12.8;76.2
74431;BME280;62863;52.062;23.764;2022-09-09T09:48:21;1026.7;;;12.9;75.6
74431;BME280;62863;52.062;23.764;2022-09-09T10:23:48;1026.8;;;12.2;77.2
74431;BME280;62863;52.062;23.764;2022-09-09T10:29:03;1026.8;;;12.2;77.2
74431;BME280;62863;52.062;23.764;2022-09-09T10:38:32;1026.8;;;12.2;77.2
74431;BME280;62863;52.062;23.764;2022-09-09T10:43:46;1026.9;;;12.4;76.7
74431;BME280;62863;52.062;23.764;2022-09-09T10:48:49;1026.8;;;12.3;76.3
74431;BME280;62863;52.062;23.764;2022-09-09T10:59:07;1026.9;;;12.3;77.5
74431;BME280;62863;52.062;23.764;2022-09-09T11:03:58;1027;;;12.2;77.5
74431;BME280;62863;52.062;23.764;2022-09-09T11:08:56;1027;;;12.3;77.5
74431;BME280;62863;52.062;23.764;2022-09-09T11:13:55;1027.1;;;12.4;77.9
74431;BME280;62863;52.062;23.764;2022-09-09T11:19:09;1027.1;;;12.5;77.4
74431;BME280;62863;52.062;23.764;2022-09-09T11:23:23;1027.2;;;12.4;76.3
74431;BME280;62863;52.062;23.764;2022-09-09T11:33:34;1027.1;;;12.3;77.9
74431;BME280;62863;52.062;23.764;2022-09-09T11:38:52;1027.2;;;12.4;78.3
74431;BME280;62863;52.062;23.764;2022-09-09T11:43:44;1027.2;;;12.4;78.1
74431;BME280;62863;52.062;23.764;2022-09-09T11:49:00;1027.2;;;12.4;78.5
74431;BME280;62863;52.062;23.764;2022-09-09T11:53:52;1027.1;;;12.5;77
74431;BME280;62863;52.062;23.764;2022-09-09T11:59:20;1027.1;;;12.5;77
74431;BME280;62863;52.062;23.764;2022-09-09T12:03:52;1027.1;;;12.5;77
74431;BME280;62863;52.062;23.764;2022-09-09T12:09:12;1026.9;;;12.7;76
74431;BME280;62863;52.062;23.764;2022-09-09T12:13:21;1027;;;12.7;76.7
74431;BME280;62863;52.062;23.764;2022-09-09T12:18:35;1027;;;12.7;77
74431;BME280;62863;52.062;23.764;2022-09-09T12:23:32;1027;;;12.8;77.3
74431;BME280;62863;52.062;23.764;2022-09-09T12:29:05;1027.1;;;12.8;76.5
74431;BME280;62863;52.062;23.764;2022-09-09T12:33:51;1027.1;;;12.7;76.3
74431;BME280;62863;52.062;23.764;2022-09-09T12:38:38;1027.1;;;12.8;76.6
74431;BME280;62863;52.062;23.764;2022-09-09T12:44:04;1027.1;;;12.7;76.5
74431;BME280;62863;52.062;23.764;2022-09-09T12:48:51;1027.1;;;12.6;76
74431;BME280;62863;52.062;23.764;2022-09-09T12:53:39;1027.1;;;12.7;76.9
74431;BME280;62863;52.062;23.764;2022-09-09T12:58:39;1027.1;;;12.7;76.7
74431;BME280;62863;52.062;23.764;2022-09-09T13:03:43;1027.1;;;12.8;76.5
74431;BME280;62863;52.062;23.764;2022-09-09T13:08:20;1027.1;;;12.7;76.6
74431;BME280;62863;52.062;23.764;2022-09-09T13:13:22;1027.2;;;12.8;76.8
74431;BME280;62863;52.062;23.764;2022-09-09T13:18:41;1027.2;;;12.7;76.8
74431;BME280;62863;52.062;23.764;2022-09-09T13:23:48;1027.2;;;12.7;76.8
74431;BME280;62863;52.062;23.764;2022-09-09T13:29:08;1027.2;;;12.7;77
74431;BME280;62863;52.062;23.764;2022-09-09T13:34:35;1027.3;;;12.7;77
74431;BME280;62863;52.062;23.764;2022-09-09T13:38:38;1027.3;;;12.6;76.2
74431;BME280;62863;52.062;23.764;2022-09-09T13:44:06;1027.3;;;12.6;76.7
74431;BME280;62863;52.062;23.764;2022-09-09T13:54:02;1027.3;;;12.4;77.2
74431;BME280;62863;52.062;23.764;2022-09-09T13:58:44;1027.4;;;12.5;77.3
74431;BME280;62863;52.062;23.764;2022-09-09T14:04:02;1027.3;;;12.4;78.1
74431;BME280;62863;52.062;23.764;2022-09-09T14:09:06;1027.3;;;12.5;77.9
74431;BME280;62863;52.062;23.764;2022-09-09T14:14:08;1027.2;;;12.4;77.2
74431;BME280;62863;52.062;23.764;2022-09-09T14:18:46;1027.3;;;12.3;77.7
74431;BME280;62863;52.062;23.764;2022-09-09T14:23:56;1027.2;;;12.3;78.3
74431;BME280;62863;52.062;23.764;2022-09-09T14:28:50;1027.2;;;12.2;78.6
74431;BME280;62863;52.062;23.764;2022-09-09T14:33:22;1027.2;;;12.2;79
74431;BME280;62863;52.062;23.764;2022-09-09T14:38:54;1027.3;;;12.3;78.2
74431;BME280;62863;52.062;23.764;2022-09-09T14:44:04;1027.2;;;12.2;78.3
74431;BME280;62863;52.062;23.764;2022-09-09T14:48:32;1027.1;;;12.2;78.3
74431;BME280;62863;52.062;23.764;2022-09-09T14:53:32;1027.1;;;12.1;78.9
74431;BME280;62863;52.062;23.764;2022-09-09T14:59:04;1027.1;;;12.1;79.2
74431;BME280;62863;52.062;23.764;2022-09-09T15:03:40;1027.1;;;12.1;78.9
74431;BME280;62863;52.062;23.764;2022-09-09T15:18:55;1027.2;;;12.2;78.8
74431;BME280;62863;52.062;23.764;2022-09-09T15:24:04;1027.3;;;12.1;78.3
74431;BME280;62863;52.062;23.764;2022-09-09T15:28:42;1027.3;;;11.9;78.2
74431;BME280;62863;52.062;23.764;2022-09-09T15:33:42;1027.3;;;11.8;79
74431;BME280;62863;52.062;23.764;2022-09-09T15:38:22;1027.3;;;11.8;78.9
74431;BME280;62863;52.062;23.764;2022-09-09T15:43:43;1027.3;;;11.8;78.9
74431;BME280;62863;52.062;23.764;2022-09-09T15:48:46;1027.2;;;11.8;78.6
74431;BME280;62863;52.062;23.764;2022-09-09T15:59:08;1027.2;;;11.8;78.6
74431;BME280;62863;52.062;23.764;2022-09-09T16:04:08;1027.4;;;11.9;79.3
74431;BME280;62863;52.062;23.764;2022-09-09T16:08:41;1027.4;;;11.9;79.3
74431;BME280;62863;52.062;23.764;2022-09-09T16:14:06;1027.3;;;12;79.3
74431;BME280;62863;52.062;23.764;2022-09-09T16:19:08;1027.3;;;11.9;79
74431;BME280;62863;52.062;23.764;2022-09-09T16:24:06;1027.3;;;11.9;79.3
74431;BME280;62863;52.062;23.764;2022-09-09T16:28:22;1027.3;;;11.9;79.3
74431;BME280;62863;52.062;23.764;2022-09-09T16:33:22;1027.2;;;11.9;80
74431;BME280;62863;52.062;23.764;2022-09-09T16:39:07;1027.2;;;11.9;80
74431;BME280;62863;52.062;23.764;2022-09-09T16:43:58;1027.2;;;11.9;79.9
74431;BME280;62863;52.062;23.764;2022-09-09T16:53:22;1027.3;;;12;78.3
74431;BME280;62863;52.062;23.764;2022-09-09T16:58:50;1027.3;;;11.9;78.9
74431;BME280;62863;52.062;23.764;2022-09-09T17:03:32;1027.3;;;11.9;78.9
74431;BME280;62863;52.062;23.764;2022-09-09T17:14:09;1027.5;;;11.9;78.9
74431;BME280;62863;52.062;23.764;2022-09-09T17:18:32;1027.5;;;11.9;78.9
74431;BME280;62863;52.062;23.764;2022-09-09T17:23:22;1027.5;;;11.9;78.9
74431;BME280;62863;52.062;23.764;2022-09-09T17:29:06;1027.6;;;11.8;78.9
74431;BME280;62863;52.062;23.764;2022-09-09T17:33:24;1027.8;;;11.8;80.6
74431;BME280;62863;52.062;23.764;2022-09-09T17:39:06;1027.8;;;11.8;80
74431;BME280;62863;52.062;23.764;2022-09-09T17:43:30;1027.8;;;11.9;80.1
74431;BME280;62863;52.062;23.764;2022-09-09T17:49:09;1027.8;;;11.8;79.5
74431;BME280;62863;52.062;23.764;2022-09-09T17:53:54;1027.7;;;11.8;79.9
74431;BME280;62863;52.062;23.764;2022-09-09T17:58:42;1027.6;;;11.8;80.5
74431;BME280;62863;52.062;23.764;2022-09-09T18:03:33;1027.6;;;11.9;80.2
74431;BME280;62863;52.062;23.764;2022-09-09T18:08:32;1027.6;;;11.8;80.3
74431;BME280;62863;52.062;23.764;2022-09-09T18:13:40;1027.7;;;11.8;80.2
74431;BME280;62863;52.062;23.764;2022-09-09T18:18:32;1027.7;;;11.8;80.2
74431;BME280;62863;52.062;23.764;2022-09-09T18:23:58;1027.7;;;11.8;80.4
74431;BME280;62863;52.062;23.764;2022-09-09T18:29:09;1027.6;;;11.8;80.3
74431;BME280;62863;52.062;23.764;2022-09-09T18:33:52;1027.6;;;11.8;80.3
74431;BME280;62863;52.062;23.764;2022-09-09T18:38:48;1027.5;;;11.8;80.9
74431;BME280;62863;52.062;23.764;2022-09-09T18:43:40;1027.5;;;11.8;80.9
74431;BME280;62863;52.062;23.764;2022-09-09T18:48:50;1027.6;;;11.8;81.1
74431;BME280;62863;52.062;23.764;2022-09-09T18:54:07;1027.7;;;11.8;81.3
74431;BME280;62863;52.062;23.764;2022-09-09T19:08:31;1027.7;;;11.8;81.3
74431;BME280;62863;52.062;23.764;2022-09-09T19:13:57;1027.9;;;11.6;81
74431;BME280;62863;52.062;23.764;2022-09-09T19:23:55;1027.9;;;11.6;80.5
74431;BME280;62863;52.062;23.764;2022-09-09T19:28:50;1027.8;;;11.5;81.1
74431;BME280;62863;52.062;23.764;2022-09-09T19:33:51;1027.8;;;11.5;81.1
74431;BME280;62863;52.062;23.764;2022-09-09T20:03:55;1027.6;;;11.5;81.8
74431;BME280;62863;52.062;23.764;2022-09-09T20:13:38;1027.5;;;11.7;82
74431;BME280;62863;52.062;23.764;2022-09-09T20:19:07;1027.3;;;11.7;82.4
74431;BME280;62863;52.062;23.764;2022-09-09T20:23:57;1027.3;;;11.6;83.1
74431;BME280;62863;52.062;23.764;2022-09-09T20:28:40;1027.3;;;11.6;83.1
74431;BME280;62863;52.062;23.764;2022-09-09T20:33:46;1027.3;;;11.6;83.1
74431;BME280;62863;52.062;23.764;2022-09-09T20:38:22;1027.3;;;11.8;82.7
74431;BME280;62863;52.062;23.764;2022-09-09T20:53:46;1027.4;;;11.5;83.4
74431;BME280;62863;52.062;23.764;2022-09-09T20:59:10;1027.4;;;11.5;83.4
74431;BME280;62863;52.062;23.764;2022-09-09T21:03:44;1027.4;;;11.7;83.7
74431;BME280;62863;52.062;23.764;2022-09-09T21:24:06;1027.4;;;11.7;83.7
74431;BME280;62863;52.062;23.764;2022-09-09T21:28:54;1027.4;;;11.8;83.5
74431;BME280;62863;52.062;23.764;2022-09-09T21:33:22;1027.4;;;11.8;83.4
74431;BME280;62863;52.062;23.764;2022-09-09T21:38:22;1027.4;;;11.8;83.5
74431;BME280;62863;52.062;23.764;2022-09-09T21:43:56;1027.3;;;11.9;83.3
74431;BME280;62863;52.062;23.764;2022-09-09T21:48:46;1027.3;;;11.8;83
74431;BME280;62863;52.062;23.764;2022-09-09T21:53:54;1027.3;;;11.8;82.9
74431;BME280;62863;52.062;23.764;2022-09-09T21:58:53;1027.3;;;11.8;83.1
74431;BME280;62863;52.062;23.764;2022-09-09T22:03:50;1027.2;;;11.8;83.2
74431;BME280;62863;52.062;23.764;2022-09-09T22:08:42;1027.2;;;11.8;83.3
74431;BME280;62863;52.062;23.764;2022-09-09T22:13:56;1027.1;;;11.8;83.5
74431;BME280;62863;52.062;23.764;2022-09-09T22:19:06;1027.1;;;11.8;83.7
74431;BME280;62863;52.062;23.764;2022-09-09T22:23:22;1027.1;;;11.8;83.7
74431;BME280;62863;52.062;23.764;2022-09-09T22:28:40;1027.1;;;11.8;83.8
74431;BME280;62863;52.062;23.764;2022-09-09T22:33:58;1027.1;;;11.8;83.6
74431;BME280;62863;52.062;23.764;2022-09-09T22:38:54;1027.1;;;11.8;83.5
74431;BME280;62863;52.062;23.764;2022-09-09T22:44:05;1027.1;;;11.8;83.7
74431;BME280;62863;52.062;23.764;2022-09-09T22:48:40;1027;;;11.8;83.6
74431;BME280;62863;52.062;23.764;2022-09-09T22:53:38;1026.9;;;11.8;83.5
74431;BME280;62863;52.062;23.764;2022-09-09T22:59:04;1027;;;11.8;83.7
74431;BME280;62863;52.062;23.764;2022-09-09T23:03:22;1027;;;11.9;83.7
74431;BME280;62863;52.062;23.764;2022-09-09T23:08:40;1026.9;;;11.8;83.9
74431;BME280;62863;52.062;23.764;2022-09-09T23:13:22;1026.9;;;11.8;84
74431;BME280;62863;52.062;23.764;2022-09-09T23:18:22;1026.9;;;11.8;84.2
74431;BME280;62863;52.062;23.764;2022-09-09T23:23:46;1026.9;;;11.9;84.3
74431;BME280;62863;52.062;23.764;2022-09-09T23:28:46;1026.8;;;11.9;84.2
74431;BME280;62863;52.062;23.764;2022-09-09T23:33:57;1026.8;;;12;84.1
74431;BME280;62863;52.062;23.764;2022-09-09T23:39:04;1026.8;;;12;84
74431;BME280;62863;52.062;23.764;2022-09-09T23:43:50;1026.7;;;12;83.6
74431;BME280;62863;52.062;23.764;2022-09-09T23:48:54;1026.7;;;12;83.6
74431;BME280;62863;52.062;23.764;2022-09-09T23:54:06;1026.7;;;12;83.6
74431;BME280;62863;52.062;23.764;2022-09-09T23:59:06;1026.7;;;12.1;83.6
